createdAt,value
2018-08-03T00:01:40.826Z,21.41
2018-08-03T00:04:09.605Z,21.40
2018-08-03T00:06:38.387Z,21.43
2018-08-03T00:09:09.546Z,21.41
2018-08-03T00:11:38.441Z,21.36
2018-08-03T00:14:07.336Z,21.31
2018-08-03T00:16:36.066Z,21.28
2018-08-03T00:19:04.955Z,21.29
2018-08-03T00:21:34.098Z,21.29
2018-08-03T00:24:02.826Z,21.31
2018-08-03T00:26:31.602Z,21.27
2018-08-03T00:29:00.466Z,21.23
2018-08-03T00:31:29.232Z,21.19
2018-08-03T00:33:58.006Z,21.16
2018-08-03T00:36:26.821Z,21.16
2018-08-03T00:38:55.689Z,21.18
2018-08-03T00:41:24.454Z,21.22
2018-08-03T00:43:53.259Z,21.26
2018-08-03T00:46:22.027Z,21.33
2018-08-03T00:48:50.763Z,21.35
2018-08-03T00:51:19.575Z,21.37
2018-08-03T00:53:48.325Z,21.32
2018-08-03T00:56:17.098Z,21.29
2018-08-03T00:58:45.807Z,21.28
2018-08-03T01:01:14.570Z,21.31
2018-08-03T01:03:43.309Z,21.25
2018-08-03T01:06:12.053Z,21.16
2018-08-03T01:08:40.810Z,21.12
2018-08-03T01:11:09.604Z,21.06
2018-08-03T01:13:38.737Z,21.07
2018-08-03T01:16:07.493Z,21.06
2018-08-03T01:18:36.278Z,21.05
2018-08-03T01:21:05.068Z,21.02
2018-08-03T01:23:34.249Z,21.00
2018-08-03T01:26:03.150Z,20.99
2018-08-03T01:28:31.929Z,21.00
2018-08-03T01:31:00.842Z,20.97
2018-08-03T01:33:29.602Z,20.91
2018-08-03T01:35:58.357Z,20.89
2018-08-03T01:38:27.158Z,20.85
2018-08-03T01:40:56.284Z,20.85
2018-08-03T01:43:25.109Z,20.86
2018-08-03T01:45:53.843Z,20.88
2018-08-03T01:48:22.635Z,20.89
2018-08-03T01:50:51.476Z,20.93
2018-08-03T01:53:20.243Z,20.96
2018-08-03T01:55:49.001Z,20.96
2018-08-03T01:58:17.762Z,20.96
2018-08-03T02:00:46.569Z,20.92
2018-08-03T02:03:15.371Z,20.85
2018-08-03T02:05:44.318Z,20.83
2018-08-03T02:08:13.277Z,20.84
2018-08-03T02:10:42.096Z,20.84
2018-08-03T02:13:10.835Z,20.83
2018-08-03T02:15:39.612Z,20.77
2018-08-03T02:18:08.468Z,20.78
2018-08-03T02:20:37.328Z,20.76
2018-08-03T02:23:06.079Z,20.73
2018-08-03T02:25:34.870Z,20.68
2018-08-03T02:28:03.695Z,20.66
2018-08-03T02:30:32.626Z,20.64
2018-08-03T02:33:01.480Z,20.66
2018-08-03T02:35:30.224Z,20.67
2018-08-03T02:37:58.998Z,20.70
2018-08-03T02:40:27.765Z,20.72
2018-08-03T02:42:56.871Z,20.66
2018-08-03T02:45:25.738Z,20.63
2018-08-03T02:47:54.517Z,20.63
2018-08-03T02:50:23.306Z,20.68
2018-08-03T02:52:52.120Z,20.63
2018-08-03T02:55:20.931Z,20.56
2018-08-03T02:57:49.755Z,20.51
2018-08-03T03:00:18.675Z,20.52
2018-08-03T03:02:47.530Z,20.55
2018-08-03T03:05:16.428Z,20.58
2018-08-03T03:07:45.227Z,20.63
2018-08-03T03:10:14.017Z,20.59
2018-08-03T03:12:42.811Z,20.57
2018-08-03T03:15:11.640Z,20.58
2018-08-03T03:17:40.383Z,20.57
2018-08-03T03:20:09.166Z,20.55
2018-08-03T03:22:37.946Z,20.56
2018-08-03T03:25:07.056Z,20.60
2018-08-03T03:27:35.838Z,20.59
2018-08-03T03:30:05.523Z,20.56
2018-08-03T03:32:34.409Z,20.53
2018-08-03T03:35:03.370Z,20.48
2018-08-03T03:37:32.168Z,20.41
2018-08-03T03:40:00.947Z,20.43
2018-08-03T03:42:29.718Z,20.39
2018-08-03T03:44:58.456Z,20.37
2018-08-03T03:47:27.248Z,20.42
2018-08-03T03:49:55.981Z,20.45
2018-08-03T03:52:24.769Z,20.51
2018-08-03T03:54:53.653Z,20.56
2018-08-03T03:57:22.789Z,20.61
2018-08-03T03:59:51.584Z,20.68
2018-08-03T04:02:20.355Z,20.78
2018-08-03T04:04:49.145Z,20.90
2018-08-03T04:07:17.950Z,21.02
2018-08-03T04:09:46.730Z,21.13
2018-08-03T04:12:15.530Z,21.25
2018-08-03T04:14:44.355Z,21.40
2018-08-03T04:17:13.171Z,21.48
2018-08-03T04:19:41.957Z,21.55
2018-08-03T04:22:10.753Z,21.59
2018-08-03T04:24:39.510Z,21.61
2018-08-03T04:27:08.299Z,21.57
2018-08-03T04:29:37.070Z,21.58
2018-08-03T04:32:05.878Z,21.66
2018-08-03T04:34:34.717Z,21.78
2018-08-03T04:37:03.490Z,21.87
2018-08-03T04:39:32.313Z,21.94
2018-08-03T04:42:01.123Z,21.89
2018-08-03T04:44:29.961Z,21.95
2018-08-03T04:46:58.715Z,22.09
2018-08-03T04:49:27.511Z,22.16
2018-08-03T04:51:56.302Z,22.40
2018-08-03T04:54:25.127Z,23.03
2018-08-03T04:56:53.886Z,23.67
2018-08-03T04:59:22.667Z,24.61
2018-08-03T05:01:51.497Z,25.22
2018-08-03T05:04:20.342Z,25.59
2018-08-03T05:06:49.148Z,25.55
2018-08-03T05:09:17.966Z,26.11
2018-08-03T05:11:46.779Z,26.51
2018-08-03T05:14:15.487Z,26.56
2018-08-03T05:16:44.284Z,26.99
2018-08-03T05:19:13.026Z,27.31
2018-08-03T05:21:41.814Z,27.56
2018-08-03T05:24:10.596Z,27.66
2018-08-03T05:26:39.518Z,26.95
2018-08-03T05:29:08.350Z,26.32
2018-08-03T05:31:37.126Z,25.98
2018-08-03T05:34:06.299Z,26.07
2018-08-03T05:36:35.103Z,26.25
2018-08-03T05:39:04.240Z,26.40
2018-08-03T05:41:32.963Z,26.43
2018-08-03T05:44:01.882Z,26.20
2018-08-03T05:46:30.841Z,25.84
2018-08-03T05:48:59.623Z,25.60
2018-08-03T05:51:28.479Z,25.61
2018-08-03T05:53:57.249Z,25.78
2018-08-03T05:56:26.170Z,25.73
2018-08-03T05:58:55.327Z,25.53
2018-08-03T06:01:24.204Z,25.49
2018-08-03T06:03:53.228Z,25.38
2018-08-03T06:06:22.059Z,25.34
2018-08-03T06:08:50.829Z,24.84
2018-08-03T06:11:19.615Z,24.51
2018-08-03T06:13:48.381Z,24.54
2018-08-03T06:16:17.417Z,24.41
2018-08-03T06:18:46.234Z,24.25
2018-08-03T06:21:15.446Z,24.16
2018-08-03T06:23:44.299Z,24.21
2018-08-03T06:26:13.189Z,24.20
2018-08-03T06:28:41.940Z,24.29
2018-08-03T06:31:10.778Z,24.54
2018-08-03T06:33:39.553Z,24.77
2018-08-03T06:36:08.313Z,24.81
2018-08-03T06:38:37.082Z,24.63
2018-08-03T06:41:05.866Z,24.72
2018-08-03T06:43:34.651Z,24.58
2018-08-03T06:46:03.479Z,24.68
2018-08-03T06:48:32.294Z,24.67
2018-08-03T06:51:01.201Z,24.67
2018-08-03T06:53:29.937Z,24.58
2018-08-03T06:55:58.758Z,24.58
2018-08-03T06:58:27.622Z,24.55
2018-08-03T07:00:57.792Z,24.66
2018-08-03T07:03:26.635Z,24.67
2018-08-03T07:05:55.566Z,24.82
2018-08-03T07:08:24.390Z,24.94
2018-08-03T07:10:53.330Z,24.92
2018-08-03T07:13:22.141Z,24.50
2018-08-03T07:15:50.926Z,24.41
2018-08-03T07:18:19.781Z,24.63
2018-08-03T07:20:49.428Z,24.71
2018-08-03T07:23:18.323Z,24.87
2018-08-03T07:25:47.198Z,24.86
2018-08-03T07:28:16.221Z,25.11
2018-08-03T07:30:45.127Z,25.22
2018-08-03T07:33:13.917Z,25.09
2018-08-03T07:35:42.766Z,25.14
2018-08-03T07:38:11.568Z,25.08
2018-08-03T07:40:40.762Z,24.88
2018-08-03T07:43:09.683Z,24.95
2018-08-03T07:45:38.579Z,24.60
2018-08-03T07:48:08.122Z,24.82
2018-08-03T07:50:36.850Z,24.95
2018-08-03T07:53:05.665Z,24.74
2018-08-03T07:55:34.425Z,24.76
2018-08-03T07:58:03.576Z,24.71
2018-08-03T08:00:32.371Z,24.80
2018-08-03T08:03:01.163Z,24.69
2018-08-03T08:05:29.887Z,24.69
2018-08-03T08:07:58.735Z,24.72
2018-08-03T08:10:27.465Z,24.46
2018-08-03T08:12:56.238Z,24.48
2018-08-03T08:15:25.202Z,24.30
2018-08-03T08:17:53.923Z,24.09
2018-08-03T08:20:22.742Z,23.92
2018-08-03T08:22:51.643Z,23.99
2018-08-03T08:25:20.882Z,24.02
2018-08-03T08:27:49.622Z,24.15
2018-08-03T08:30:18.547Z,24.26
2018-08-03T08:32:47.338Z,24.25
2018-08-03T08:35:16.131Z,24.31
2018-08-03T08:37:44.916Z,24.65
2018-08-03T08:40:13.679Z,24.87
2018-08-03T08:42:42.482Z,24.74
2018-08-03T08:45:11.341Z,24.76
2018-08-03T08:47:40.284Z,24.84
2018-08-03T08:50:09.675Z,24.75
2018-08-03T08:52:38.491Z,24.80
2018-08-03T08:55:07.289Z,24.94
2018-08-03T08:57:36.036Z,25.11
2018-08-03T09:00:06.553Z,25.11
2018-08-03T09:02:35.419Z,25.25
2018-08-03T09:05:04.359Z,25.16
2018-08-03T09:07:33.268Z,25.15
2018-08-03T09:10:02.207Z,25.26
2018-08-03T09:12:31.052Z,25.61
2018-08-03T09:14:59.809Z,25.38
2018-08-03T09:17:28.597Z,25.15
2018-08-03T09:19:57.338Z,25.12
2018-08-03T09:22:26.153Z,25.09
2018-08-03T09:24:55.490Z,24.97
2018-08-03T09:27:24.707Z,24.94
2018-08-03T09:29:53.508Z,25.00
2018-08-03T09:32:22.372Z,25.10
2018-08-03T09:34:51.237Z,25.11
2018-08-03T09:37:20.006Z,24.82
2018-08-03T09:39:48.778Z,24.82
2018-08-03T09:42:17.639Z,24.91
2018-08-03T09:44:46.515Z,24.85
2018-08-03T09:47:15.334Z,24.94
2018-08-03T09:49:44.119Z,25.11
2018-08-03T09:52:12.914Z,25.25
2018-08-03T09:54:41.687Z,25.30
2018-08-03T09:57:10.478Z,25.42
2018-08-03T09:59:39.231Z,25.32
2018-08-03T10:02:08.545Z,25.24
2018-08-03T10:04:37.326Z,25.29
2018-08-03T10:07:06.077Z,25.40
2018-08-03T10:09:34.958Z,25.46
2018-08-03T10:12:03.810Z,25.44
2018-08-03T10:14:32.922Z,25.60
2018-08-03T10:17:02.047Z,25.51
2018-08-03T10:19:30.788Z,25.61
2018-08-03T10:21:59.595Z,25.54
2018-08-03T10:24:28.587Z,25.77
2018-08-03T10:26:57.505Z,25.80
2018-08-03T10:29:26.294Z,25.86
2018-08-03T10:31:54.997Z,26.16
2018-08-03T10:34:23.786Z,26.02
2018-08-03T10:36:52.987Z,26.05
2018-08-03T10:39:21.742Z,26.04
2018-08-03T10:41:50.509Z,26.06
2018-08-03T10:44:19.388Z,26.22
2018-08-03T10:46:48.112Z,26.18
2018-08-03T10:49:16.933Z,25.99
2018-08-03T10:51:46.121Z,25.80
2018-08-03T10:54:15.025Z,26.00
2018-08-03T10:56:43.807Z,26.13
2018-08-03T10:59:12.671Z,26.30
2018-08-03T11:01:41.587Z,26.37
2018-08-03T11:04:10.524Z,26.52
2018-08-03T11:06:39.351Z,26.64
2018-08-03T11:09:09.067Z,26.60
2018-08-03T11:11:37.932Z,26.28
2018-08-03T11:14:07.523Z,26.37
2018-08-03T11:16:36.324Z,26.09
2018-08-03T11:19:10.129Z,26.22
2018-08-03T11:21:38.891Z,26.50
2018-08-03T11:24:07.800Z,26.47
2018-08-03T11:26:36.773Z,26.43
2018-08-03T11:29:05.973Z,26.63
2018-08-03T11:31:34.731Z,26.64
2018-08-03T11:34:03.543Z,26.49
2018-08-03T11:36:32.374Z,26.32
2018-08-03T11:39:01.186Z,26.35
2018-08-03T11:41:29.982Z,26.57
2018-08-03T11:43:59.101Z,26.46
2018-08-03T11:46:27.962Z,26.67
2018-08-03T11:48:56.759Z,26.49
2018-08-03T11:51:25.565Z,26.14
2018-08-03T11:53:54.425Z,26.13
2018-08-03T11:56:23.403Z,26.30
2018-08-03T11:58:52.481Z,26.31
2018-08-03T12:01:21.221Z,26.35
2018-08-03T12:03:50.042Z,26.09
2018-08-03T12:06:18.828Z,26.11
2018-08-03T12:08:47.616Z,26.16
2018-08-03T12:11:16.442Z,26.39
2018-08-03T12:13:45.222Z,26.54
2018-08-03T12:16:13.996Z,26.37
2018-08-03T12:18:42.742Z,26.10
2018-08-03T12:21:11.538Z,26.14
2018-08-03T12:23:40.363Z,26.19
2018-08-03T12:26:09.176Z,26.33
2018-08-03T12:28:37.984Z,26.40
2018-08-03T12:31:06.957Z,26.49
2018-08-03T12:33:35.889Z,26.64
2018-08-03T12:36:04.815Z,26.62
2018-08-03T12:38:33.684Z,26.45
2018-08-03T12:41:02.838Z,26.43
2018-08-03T12:43:31.630Z,26.64
2018-08-03T12:46:00.551Z,26.74
2018-08-03T12:48:29.471Z,26.78
2018-08-03T12:50:58.293Z,26.70
2018-08-03T12:53:27.085Z,26.63
2018-08-03T12:55:55.982Z,26.84
2018-08-03T12:58:24.910Z,27.03
2018-08-03T13:06:04.002Z,26.59
2018-08-03T13:08:32.879Z,26.76
2018-08-03T13:11:01.766Z,26.83
2018-08-03T13:13:30.566Z,26.92
2018-08-03T13:15:59.470Z,26.83
2018-08-03T13:18:28.296Z,26.62
2018-08-03T13:20:57.489Z,26.73
2018-08-03T13:23:26.275Z,26.78
2018-08-03T13:25:55.082Z,26.69
2018-08-03T13:28:24.323Z,26.53
2018-08-03T13:30:53.192Z,26.56
2018-08-03T13:33:22.006Z,26.59
2018-08-03T13:35:50.826Z,26.79
2018-08-03T13:38:19.649Z,26.70
2018-08-03T13:40:48.503Z,26.51
2018-08-03T13:43:17.417Z,26.61
2018-08-03T13:45:46.292Z,26.50
2018-08-03T13:48:15.146Z,26.52
2018-08-03T13:51:01.200Z,26.60
2018-08-03T13:53:32.882Z,26.64
2018-08-03T13:56:02.494Z,26.73
2018-08-03T13:58:31.391Z,26.80
2018-08-03T14:01:19.492Z,26.71
2018-08-03T14:03:48.369Z,26.64
2018-08-03T14:06:17.180Z,26.48
2018-08-03T14:08:49.110Z,26.47
2018-08-03T14:11:18.632Z,26.60
2018-08-03T14:13:47.714Z,26.42
2018-08-03T14:16:16.646Z,26.39
2018-08-03T14:18:46.605Z,26.34
2018-08-03T14:21:15.580Z,26.40
2018-08-03T14:23:44.810Z,26.41
2018-08-03T14:26:13.702Z,26.44
2018-08-03T14:28:42.508Z,26.54
2018-08-03T14:31:11.277Z,26.62
2018-08-03T14:33:40.136Z,26.34
2018-08-03T14:36:09.091Z,26.33
2018-08-03T14:38:37.946Z,26.30
2018-08-03T14:41:08.492Z,26.42
2018-08-03T14:43:38.233Z,26.52
2018-08-03T14:46:07.423Z,26.41
2018-08-03T14:48:37.722Z,26.37
2018-08-03T14:51:07.530Z,26.32
2018-08-03T14:53:36.439Z,26.36
2018-08-03T14:56:05.486Z,26.32
2018-08-03T14:58:34.246Z,26.36
2018-08-03T15:01:03.013Z,26.16
2018-08-03T15:03:31.736Z,26.24
2018-08-03T15:06:00.521Z,26.33
2018-08-03T15:08:29.533Z,26.25
2018-08-03T15:10:59.121Z,26.07
2018-08-03T15:13:28.080Z,26.23
2018-08-03T15:15:56.871Z,26.18
2018-08-03T15:18:26.421Z,26.31
2018-08-03T15:20:55.270Z,26.08
2018-08-03T15:23:24.148Z,26.09
2018-08-03T15:25:53.022Z,26.06
2018-08-03T15:28:21.836Z,26.19
2018-08-03T15:30:50.677Z,26.24
2018-08-03T15:33:19.410Z,26.12
2018-08-03T15:35:48.177Z,26.10
2018-08-03T15:38:16.949Z,26.10
2018-08-03T15:40:46.121Z,26.19
2018-08-03T15:43:15.654Z,26.18
2018-08-03T15:45:44.706Z,26.00
2018-08-03T15:48:13.561Z,26.09
2018-08-03T15:50:42.491Z,26.00
2018-08-03T15:53:11.606Z,26.07
2018-08-03T15:55:40.499Z,26.08
2018-08-03T15:58:09.886Z,26.08
2018-08-03T16:00:38.693Z,26.08
2018-08-03T16:03:07.528Z,25.98
2018-08-03T16:05:36.323Z,25.93
2018-08-03T16:08:05.136Z,25.92
2018-08-03T16:10:33.961Z,25.69
2018-08-03T16:13:02.939Z,25.76
2018-08-03T16:15:31.721Z,25.90
2018-08-03T16:18:00.574Z,25.96
2018-08-03T16:20:29.762Z,25.92
2018-08-03T16:22:58.975Z,25.92
2018-08-03T16:25:28.341Z,25.79
2018-08-03T16:27:57.670Z,25.75
2018-08-03T16:30:26.539Z,25.75
2018-08-03T16:32:56.020Z,25.74
2018-08-03T16:35:25.216Z,25.75
2018-08-03T16:37:54.545Z,25.76
2018-08-03T16:40:23.434Z,25.79
2018-08-03T16:42:52.194Z,25.79
2018-08-03T16:45:20.989Z,25.72
2018-08-03T16:47:49.823Z,25.69
2018-08-03T16:50:18.609Z,25.57
2018-08-03T16:52:47.720Z,25.55
2018-08-03T16:55:16.672Z,25.48
2018-08-03T16:57:45.563Z,25.47
2018-08-03T17:00:17.841Z,25.51
2018-08-03T17:02:47.226Z,25.46
2018-08-03T17:05:29.815Z,25.45
2018-08-03T17:07:58.887Z,25.28
2018-08-03T17:10:27.754Z,25.20
2018-08-03T17:12:57.154Z,25.11
2018-08-03T17:15:26.100Z,25.08
2018-08-03T17:17:55.149Z,25.03
2018-08-03T17:20:24.141Z,25.01
2018-08-03T17:22:53.032Z,25.02
2018-08-03T17:25:21.872Z,25.03
2018-08-03T17:27:50.598Z,25.03
2018-08-03T17:30:20.368Z,25.04
2018-08-03T17:32:49.179Z,25.00
2018-08-03T17:35:18.042Z,24.97
2018-08-03T17:37:46.937Z,24.99
2018-08-03T17:40:15.705Z,25.01
2018-08-03T17:42:44.519Z,25.01
2018-08-03T17:45:13.484Z,25.00
2018-08-03T17:47:42.341Z,24.95
2018-08-03T17:50:11.191Z,24.89
2018-08-03T17:52:40.087Z,24.84
2018-08-03T17:55:08.863Z,24.80
2018-08-03T17:57:37.700Z,24.78
2018-08-03T18:00:06.908Z,24.73
2018-08-03T18:02:35.710Z,24.67
2018-08-03T18:05:05.028Z,24.66
2018-08-03T18:07:33.862Z,24.62
2018-08-03T18:10:02.735Z,24.58
2018-08-03T18:12:31.717Z,24.50
2018-08-03T18:15:00.586Z,24.46
2018-08-03T18:17:29.359Z,24.41
2018-08-03T18:19:58.107Z,24.39
2018-08-03T18:22:26.895Z,24.37
2018-08-03T18:24:55.667Z,24.31
2018-08-03T18:27:24.514Z,24.33
2018-08-03T18:29:53.377Z,24.33
2018-08-03T18:32:22.266Z,24.35
2018-08-03T18:34:51.112Z,24.35
2018-08-03T18:37:19.933Z,24.34
2018-08-03T18:39:48.745Z,24.31
2018-08-03T18:42:17.507Z,24.32
2018-08-03T18:44:46.267Z,24.30
2018-08-03T18:47:15.094Z,24.25
2018-08-03T18:49:44.075Z,24.17
2018-08-03T18:52:13.000Z,24.14
2018-08-03T18:54:41.839Z,24.10
2018-08-03T18:57:10.685Z,24.10
2018-08-03T18:59:39.516Z,24.02
2018-08-03T19:02:08.591Z,24.01
2018-08-03T19:04:37.395Z,23.96
2018-08-03T19:07:06.170Z,23.93
2018-08-03T19:09:34.934Z,23.95
2018-08-03T19:12:04.081Z,23.91
2018-08-03T19:14:32.867Z,23.87
2018-08-03T19:17:01.733Z,23.87
2018-08-03T19:19:30.693Z,23.83
2018-08-03T19:21:59.579Z,23.77
2018-08-03T19:24:28.575Z,23.69
2018-08-03T19:26:57.335Z,23.69
2018-08-03T19:29:26.099Z,23.69
2018-08-03T19:31:54.904Z,23.62
2018-08-03T19:34:23.802Z,23.52
2018-08-03T19:36:52.675Z,23.43
2018-08-03T19:39:21.671Z,23.31
2018-08-03T19:41:50.503Z,23.26
2018-08-03T19:44:19.241Z,23.24
2018-08-03T19:46:49.704Z,23.16
2018-08-03T19:49:18.564Z,23.15
2018-08-03T19:51:47.507Z,23.13
2018-08-03T19:54:16.361Z,23.12
2018-08-03T19:56:45.453Z,23.08
2018-08-03T19:59:14.294Z,23.04
2018-08-03T20:01:43.234Z,23.02
2018-08-03T20:04:12.398Z,22.95
2018-08-03T20:06:41.249Z,22.90
2018-08-03T20:09:11.965Z,22.88
2018-08-03T20:11:40.946Z,22.85
2018-08-03T20:14:09.646Z,22.85
2018-08-03T20:16:38.418Z,22.81
2018-08-03T20:19:07.216Z,22.75
2018-08-03T20:21:35.962Z,22.74
2018-08-03T20:24:05.510Z,22.69
2018-08-03T20:26:34.293Z,22.70
2018-08-03T20:29:03.049Z,22.65
2018-08-03T20:31:31.793Z,22.66
2018-08-03T20:34:00.628Z,22.66
2018-08-03T20:36:29.515Z,22.65
2018-08-03T20:38:58.347Z,22.67
2018-08-03T20:41:27.329Z,22.67
2018-08-03T20:43:56.238Z,22.65
2018-08-03T20:46:25.022Z,22.63
2018-08-03T20:48:53.749Z,22.52
2018-08-03T20:51:22.552Z,22.50
2018-08-03T20:53:51.306Z,22.48
2018-08-03T20:56:20.265Z,22.47
2018-08-03T20:58:49.025Z,22.42
2018-08-03T21:01:17.781Z,22.44
2018-08-03T21:03:46.557Z,22.49
2018-08-03T21:06:15.269Z,22.49
2018-08-03T21:08:44.010Z,22.50
2018-08-03T21:11:13.161Z,22.49
2018-08-03T21:13:41.972Z,22.51
2018-08-03T21:16:10.789Z,22.51
2018-08-03T21:18:39.529Z,22.52
2018-08-03T21:21:08.263Z,22.54
2018-08-03T21:23:37.065Z,22.52
2018-08-03T21:26:06.058Z,22.48
2018-08-03T21:28:34.864Z,22.45
2018-08-03T21:31:03.647Z,22.44
2018-08-03T21:33:32.422Z,22.41
2018-08-03T21:36:01.223Z,22.38
2018-08-03T21:38:30.003Z,22.39
2018-08-03T21:40:58.755Z,22.33
2018-08-03T21:43:27.527Z,22.31
2018-08-03T21:45:56.358Z,22.31
2018-08-03T21:48:25.121Z,22.22
2018-08-03T21:50:53.927Z,22.20
2018-08-03T21:53:22.660Z,22.17
2018-08-03T21:55:51.396Z,22.16
2018-08-03T21:58:20.199Z,22.15
2018-08-03T22:00:49.582Z,22.11
2018-08-03T22:03:18.361Z,22.10
2018-08-03T22:05:47.140Z,22.10
2018-08-03T22:08:15.997Z,22.06
2018-08-03T22:10:44.868Z,22.02
2018-08-03T22:13:13.663Z,21.92
2018-08-03T22:15:42.468Z,21.88
2018-08-03T22:18:12.886Z,21.79
2018-08-03T22:20:41.669Z,21.69
2018-08-03T22:23:10.675Z,21.60
2018-08-03T22:25:39.474Z,21.50
2018-08-03T22:28:08.311Z,21.46
2018-08-03T22:30:37.101Z,21.41
2018-08-03T22:33:05.934Z,21.41
2018-08-03T22:35:34.765Z,21.39
2018-08-03T22:38:03.545Z,21.37
2018-08-03T22:40:32.317Z,21.41
2018-08-03T22:43:01.309Z,21.50
2018-08-03T22:45:30.105Z,21.56
2018-08-03T22:47:59.057Z,21.54
2018-08-03T22:53:06.972Z,21.49
2018-08-03T22:55:35.863Z,21.50
2018-08-03T22:58:04.777Z,21.46
2018-08-03T23:00:34.262Z,21.42
2018-08-03T23:03:03.072Z,21.37
2018-08-03T23:05:31.887Z,21.42
2018-08-03T23:08:01.044Z,21.47
2018-08-03T23:10:29.801Z,21.52
2018-08-03T23:12:58.566Z,21.46
2018-08-03T23:15:27.378Z,21.38
2018-08-03T23:17:56.111Z,21.29
2018-08-03T23:20:25.111Z,21.21
2018-08-03T23:22:53.871Z,21.18
2018-08-03T23:25:22.773Z,21.22
2018-08-03T23:27:51.563Z,21.23
2018-08-03T23:30:20.338Z,21.23
2018-08-03T23:32:49.149Z,21.25
2018-08-03T23:35:17.909Z,21.25
2018-08-03T23:37:46.741Z,21.26
2018-08-03T23:40:15.479Z,21.23
2018-08-03T23:42:44.241Z,21.31
2018-08-03T23:45:12.985Z,21.34
2018-08-03T23:47:41.754Z,21.39
2018-08-03T23:50:16.313Z,21.33
2018-08-03T23:52:46.404Z,21.35
2018-08-03T23:55:15.394Z,21.36
2018-08-03T23:57:44.385Z,21.36
